createdAt,value
2018-03-04T00:01:20.762Z,59.30
2018-03-04T00:03:48.920Z,59.60
2018-03-04T00:06:17.066Z,59.90
2018-03-04T00:08:45.201Z,60.30
2018-03-04T00:11:15.464Z,60.90
2018-03-04T00:13:45.341Z,60.20
2018-03-04T00:16:14.250Z,60.70
2018-03-04T00:18:45.555Z,60.70
2018-03-04T00:21:16.077Z,60.60
2018-03-04T00:23:45.562Z,60.60
2018-03-04T00:26:13.736Z,60.30
2018-03-04T00:28:42.986Z,60.10
2018-03-04T00:31:11.879Z,61.10
2018-03-04T00:33:40.774Z,61.20
2018-03-04T00:36:09.868Z,61.20
2018-03-04T00:38:40.159Z,61.40
2018-03-04T00:41:09.452Z,61.40
2018-03-04T00:43:37.587Z,61.40
2018-03-04T00:46:11.167Z,61.90
2018-03-04T00:48:40.069Z,62.20
2018-03-04T00:51:09.584Z,62.20
2018-03-04T00:53:37.695Z,62.20
2018-03-04T00:56:07.460Z,62.20
2018-03-04T00:58:38.060Z,62.20
2018-03-04T01:01:07.987Z,62.30
2018-03-04T01:03:36.869Z,62.40
2018-03-04T01:06:05.782Z,62.40
2018-03-04T01:08:34.661Z,63.00
2018-03-04T01:11:03.566Z,63.20
2018-03-04T01:13:34.748Z,63.20
2018-03-04T01:16:02.957Z,63.20
2018-03-04T01:18:31.705Z,63.30
2018-03-04T01:20:59.830Z,63.50
2018-03-04T01:23:28.726Z,63.70
2018-03-04T01:25:57.655Z,63.80
2018-03-04T01:28:25.784Z,63.80
2018-03-04T01:30:55.190Z,63.30
2018-03-04T01:33:24.062Z,63.50
2018-03-04T01:35:53.509Z,63.40
2018-03-04T01:38:21.627Z,64.30
2018-03-04T01:40:52.389Z,64.60
2018-03-04T01:43:22.411Z,64.90
2018-03-04T01:45:52.939Z,65.20
2018-03-04T01:48:21.073Z,65.10
2018-03-04T01:50:50.196Z,65.70
2018-03-04T01:53:19.519Z,66.00
2018-03-04T01:55:50.361Z,66.60
2018-03-04T01:58:21.812Z,66.60
2018-03-04T02:00:50.706Z,66.80
2018-03-04T02:03:18.838Z,66.80
2018-03-04T02:05:48.656Z,66.80
2018-03-04T02:08:17.382Z,66.70
2018-03-04T02:10:46.970Z,66.60
2018-03-04T02:13:17.089Z,67.00
2018-03-04T02:15:48.590Z,66.90
2018-03-04T02:18:16.710Z,66.90
2018-03-04T02:20:48.837Z,67.20
2018-03-04T02:23:19.200Z,67.10
2018-03-04T02:25:47.345Z,67.30
2018-03-04T02:28:16.759Z,67.10
2018-03-04T02:30:44.898Z,66.90
2018-03-04T02:33:13.033Z,66.80
2018-03-04T02:35:41.964Z,67.00
2018-03-04T02:38:10.105Z,66.90
2018-03-04T02:40:39.011Z,67.60
2018-03-04T02:43:08.991Z,67.60
2018-03-04T02:45:37.225Z,67.60
2018-03-04T02:48:05.351Z,67.70
2018-03-04T02:50:33.952Z,68.00
2018-03-04T02:53:02.479Z,68.30
2018-03-04T02:55:33.354Z,68.50
2018-03-04T02:58:03.577Z,68.20
2018-03-04T03:00:33.581Z,67.80
2018-03-04T03:03:03.369Z,67.80
2018-03-04T03:05:32.773Z,67.60
2018-03-04T03:08:00.930Z,67.70
2018-03-04T03:10:29.147Z,67.60
2018-03-04T03:12:58.969Z,67.80
2018-03-04T03:15:29.347Z,67.90
2018-03-04T03:17:59.598Z,67.80
2018-03-04T03:20:29.096Z,68.10
2018-03-04T03:22:57.251Z,68.40
2018-03-04T03:25:26.567Z,68.50
2018-03-04T03:27:57.215Z,68.50
2018-03-04T03:30:25.716Z,68.70
2018-03-04T03:32:54.623Z,68.90
2018-03-04T03:35:22.782Z,68.80
2018-03-04T03:37:54.080Z,68.90
2018-03-04T03:40:23.420Z,68.90
2018-03-04T03:42:53.442Z,69.20
2018-03-04T03:45:22.408Z,69.80
2018-03-04T03:47:54.434Z,69.00
2018-03-04T03:50:23.392Z,69.10
2018-03-04T03:52:53.298Z,69.30
2018-03-04T03:55:22.236Z,69.90
2018-03-04T03:57:50.360Z,69.50
2018-03-04T04:00:20.268Z,69.60
2018-03-04T04:02:48.404Z,69.50
2018-03-04T04:05:16.561Z,70.00
2018-03-04T04:07:44.724Z,70.00
2018-03-04T04:10:14.212Z,70.10
2018-03-04T04:12:43.614Z,70.00
2018-03-04T04:15:12.890Z,70.40
2018-03-04T04:17:41.039Z,69.90
2018-03-04T04:20:09.218Z,69.50
2018-03-04T04:22:40.218Z,69.30
2018-03-04T04:25:10.337Z,69.90
2018-03-04T04:27:39.283Z,69.60
2018-03-04T04:30:09.061Z,70.40
2018-03-04T04:32:38.432Z,69.50
2018-03-04T04:35:08.888Z,69.10
2018-03-04T04:37:38.107Z,69.10
2018-03-04T04:40:08.464Z,68.90
2018-03-04T04:42:37.348Z,68.60
2018-03-04T04:45:09.420Z,68.70
2018-03-04T04:47:38.774Z,68.70
2018-03-04T04:50:09.218Z,68.70
2018-03-04T04:52:37.388Z,68.80
2018-03-04T04:55:05.523Z,69.10
2018-03-04T04:57:34.430Z,69.40
2018-03-04T05:00:04.529Z,69.70
2018-03-04T05:02:34.387Z,69.70
2018-03-04T05:05:03.900Z,69.60
2018-03-04T05:07:33.772Z,69.60
2018-03-04T05:10:03.148Z,69.60
2018-03-04T05:12:32.355Z,69.60
2018-03-04T05:15:01.917Z,69.80
2018-03-04T05:17:31.427Z,69.80
2018-03-04T05:20:00.054Z,69.70
2018-03-04T05:22:28.979Z,69.80
2018-03-04T05:24:57.102Z,70.50
2018-03-04T05:27:25.735Z,69.70
2018-03-04T05:29:53.878Z,69.80
2018-03-04T05:32:24.196Z,70.00
2018-03-04T05:34:53.606Z,69.70
2018-03-04T05:37:22.395Z,69.70
2018-03-04T05:39:51.280Z,69.40
2018-03-04T05:42:19.891Z,69.40
2018-03-04T05:44:50.574Z,69.30
2018-03-04T05:47:18.744Z,69.30
2018-03-04T05:49:47.357Z,69.30
2018-03-04T05:52:17.394Z,69.00
2018-03-04T05:54:46.649Z,69.00
2018-03-04T05:57:15.180Z,68.70
2018-03-04T05:59:44.719Z,68.40
2018-03-04T06:02:14.545Z,67.90
2018-03-04T06:04:42.696Z,67.90
2018-03-04T06:07:13.177Z,67.70
2018-03-04T06:09:41.761Z,67.50
2018-03-04T06:12:11.429Z,67.70
2018-03-04T06:14:39.557Z,67.50
2018-03-04T06:17:08.204Z,67.30
2018-03-04T06:19:36.371Z,67.30
2018-03-04T06:22:17.929Z,67.30
2018-03-04T06:24:47.747Z,67.50
2018-03-04T06:27:17.716Z,67.90
2018-03-04T06:29:45.916Z,67.90
2018-03-04T06:32:15.619Z,67.60
2018-03-04T06:34:45.098Z,67.60
2018-03-04T06:37:16.492Z,67.80
2018-03-04T06:39:45.793Z,67.70
2018-03-04T06:42:18.596Z,67.80
2018-03-04T06:44:47.180Z,67.70
2018-03-04T06:47:15.358Z,68.00
2018-03-04T06:49:44.547Z,68.00
2018-03-04T06:52:13.654Z,67.90
2018-03-04T06:54:42.063Z,67.90
2018-03-04T06:57:10.234Z,67.90
2018-03-04T06:59:40.812Z,68.10
2018-03-04T07:02:10.626Z,66.80
2018-03-04T07:04:40.957Z,67.10
2018-03-04T07:07:09.867Z,66.30
2018-03-04T07:09:38.002Z,66.90
2018-03-04T07:12:09.259Z,65.10
2018-03-04T07:14:37.383Z,65.10
2018-03-04T07:17:09.114Z,65.10
2018-03-04T07:19:39.293Z,65.20
2018-03-04T07:22:08.789Z,65.60
2018-03-04T07:24:36.974Z,65.60
2018-03-04T07:27:06.340Z,65.20
2018-03-04T07:29:35.712Z,64.90
2018-03-04T07:32:07.262Z,64.80
2018-03-04T07:34:36.165Z,65.10
2018-03-04T07:37:05.111Z,65.50
2018-03-04T07:39:33.452Z,65.50
2018-03-04T07:42:03.171Z,66.50
2018-03-04T07:44:32.495Z,66.90
2018-03-04T07:47:01.602Z,66.90
2018-03-04T07:49:31.261Z,67.30
2018-03-04T07:52:00.397Z,67.20
2018-03-04T07:54:28.518Z,67.00
2018-03-04T07:56:57.425Z,67.10
2018-03-04T07:59:26.695Z,67.10
2018-03-04T08:01:56.360Z,67.90
2018-03-04T08:04:26.375Z,65.50
2018-03-04T08:06:55.543Z,65.40
2018-03-04T08:09:23.667Z,64.70
2018-03-04T08:11:52.768Z,60.20
2018-03-04T08:14:21.715Z,59.10
2018-03-04T08:16:51.223Z,58.80
2018-03-04T08:19:19.489Z,58.00
2018-03-04T08:21:47.644Z,56.50
2018-03-04T08:24:28.167Z,55.80
2018-03-04T08:27:10.832Z,56.40
2018-03-04T08:29:39.717Z,59.00
2018-03-04T08:32:07.834Z,59.00
2018-03-04T08:34:37.704Z,59.90
2018-03-04T08:37:05.848Z,60.30
2018-03-04T08:39:33.987Z,58.60
2018-03-04T08:42:02.115Z,58.30
2018-03-04T08:44:30.230Z,57.40
2018-03-04T08:46:58.350Z,57.70
2018-03-04T08:49:26.479Z,58.90
2018-03-04T08:51:54.600Z,57.70
2018-03-04T08:54:22.794Z,55.40
2018-03-04T08:56:51.671Z,55.60
2018-03-04T08:59:20.298Z,55.60
2018-03-04T09:01:48.417Z,56.80
2018-03-04T09:04:16.552Z,57.90
2018-03-04T09:06:44.659Z,59.00
2018-03-04T09:09:12.794Z,60.00
2018-03-04T09:11:40.929Z,61.00
2018-03-04T09:14:10.142Z,61.40
2018-03-04T09:16:39.039Z,62.40
2018-03-04T09:19:07.190Z,62.30
2018-03-04T09:21:35.766Z,63.50
2018-03-04T09:24:04.006Z,64.40
2018-03-04T09:26:32.605Z,66.10
2018-03-04T09:29:00.732Z,65.00
2018-03-04T09:31:28.854Z,64.70
2018-03-04T09:33:57.014Z,64.80
2018-03-04T09:36:25.635Z,65.10
2018-03-04T09:38:53.778Z,65.20
2018-03-04T09:41:21.916Z,64.90
2018-03-04T09:43:50.058Z,65.20
2018-03-04T09:46:18.166Z,65.20
2018-03-04T09:48:46.305Z,64.00
2018-03-04T09:51:16.032Z,63.10
2018-03-04T09:53:45.156Z,63.10
2018-03-04T09:56:14.737Z,61.90
2018-03-04T09:58:43.652Z,62.00
2018-03-04T10:01:12.937Z,62.00
2018-03-04T10:03:41.077Z,61.90
2018-03-04T10:06:09.221Z,62.50
2018-03-04T10:08:37.349Z,62.90
2018-03-04T10:11:06.904Z,65.30
2018-03-04T10:13:35.806Z,65.30
2018-03-04T10:16:03.945Z,65.30
2018-03-04T10:18:32.114Z,64.30
2018-03-04T10:21:00.262Z,63.10
2018-03-04T10:23:29.206Z,62.80
2018-03-04T10:25:58.086Z,62.90
2018-03-04T10:28:26.240Z,62.20
2018-03-04T10:30:54.358Z,61.50
2018-03-04T10:33:23.283Z,61.00
2018-03-04T10:35:52.505Z,61.40
2018-03-04T10:38:20.862Z,61.40
2018-03-04T10:40:49.743Z,62.30
2018-03-04T10:43:18.150Z,62.30
2018-03-04T10:45:47.450Z,62.50
2018-03-04T10:48:15.633Z,62.50
2018-03-04T10:50:43.805Z,62.80
2018-03-04T10:53:11.958Z,62.40
2018-03-04T10:55:40.923Z,63.00
2018-03-04T10:58:09.054Z,62.80
2018-03-04T11:00:42.795Z,62.40
2018-03-04T11:03:11.803Z,62.60
2018-03-04T11:05:40.068Z,62.50
2018-03-04T11:08:08.198Z,61.80
2018-03-04T11:10:36.346Z,61.70
2018-03-04T11:13:05.348Z,62.00
2018-03-04T11:15:34.244Z,61.50
2018-03-04T11:18:02.369Z,61.40
2018-03-04T11:20:30.969Z,59.80
2018-03-04T11:22:59.136Z,59.50
2018-03-04T11:25:27.286Z,59.20
2018-03-04T11:27:55.404Z,58.60
2018-03-04T11:30:24.314Z,58.60
2018-03-04T11:32:52.419Z,58.00
2018-03-04T11:35:20.560Z,57.60
2018-03-04T11:37:48.779Z,57.90
2018-03-04T11:40:18.132Z,58.30
2018-03-04T11:42:47.540Z,59.20
2018-03-04T11:45:16.415Z,60.90
2018-03-04T11:47:45.311Z,60.70
2018-03-04T11:50:14.215Z,60.60
2018-03-04T11:52:42.355Z,60.60
2018-03-04T11:55:10.488Z,60.60
2018-03-04T11:57:38.610Z,61.00
2018-03-04T12:00:07.513Z,61.20
2018-03-04T12:02:36.391Z,62.20
2018-03-04T12:05:05.300Z,61.50
2018-03-04T12:07:34.469Z,61.50
2018-03-04T12:10:02.612Z,61.20
2018-03-04T12:12:30.733Z,60.60
2018-03-04T12:14:59.638Z,60.80
2018-03-04T12:17:27.756Z,60.80
2018-03-04T12:19:57.131Z,61.30
2018-03-04T12:22:25.250Z,60.50
2018-03-04T12:24:53.389Z,61.20
2018-03-04T12:27:21.495Z,62.10
2018-03-04T12:29:49.649Z,61.50
2018-03-04T12:32:17.760Z,62.30
2018-03-04T12:34:46.673Z,61.80
2018-03-04T12:37:14.777Z,61.80
2018-03-04T12:39:42.898Z,61.60
2018-03-04T12:42:11.794Z,62.90
2018-03-04T12:44:40.683Z,62.90
2018-03-04T12:47:09.569Z,62.20
2018-03-04T12:49:38.489Z,62.00
2018-03-04T12:52:06.604Z,62.00
2018-03-04T12:54:34.750Z,62.40
2018-03-04T12:57:03.108Z,62.80
2018-03-04T12:59:31.242Z,63.30
2018-03-04T13:01:59.354Z,63.60
2018-03-04T13:04:27.491Z,63.00
2018-03-04T13:06:55.591Z,63.00
2018-03-04T13:09:23.747Z,63.40
2018-03-04T13:11:52.626Z,63.70
2018-03-04T13:14:20.778Z,63.40
2018-03-04T13:16:48.886Z,63.40
2018-03-04T13:19:17.023Z,63.40
2018-03-04T13:21:45.135Z,63.10
2018-03-04T13:24:13.281Z,62.90
2018-03-04T13:26:41.394Z,62.50
2018-03-04T13:29:09.523Z,62.50
2018-03-04T13:31:37.638Z,62.70
2018-03-04T13:34:06.549Z,62.70
2018-03-04T13:36:34.677Z,62.60
2018-03-04T13:39:03.521Z,63.40
2018-03-04T13:41:31.668Z,64.20
2018-03-04T13:43:59.803Z,64.10
2018-03-04T13:46:28.369Z,63.90
2018-03-04T13:48:56.479Z,64.10
2018-03-04T13:51:24.616Z,63.60
2018-03-04T13:53:52.727Z,63.90
2018-03-04T13:56:20.865Z,64.10
2018-03-04T13:58:48.979Z,64.30
2018-03-04T14:01:17.222Z,64.20
2018-03-04T14:03:45.348Z,63.90
2018-03-04T14:06:14.285Z,64.40
2018-03-04T14:08:42.417Z,64.40
2018-03-04T14:11:11.438Z,64.40
2018-03-04T14:13:39.559Z,64.40
2018-03-04T14:16:07.691Z,65.00
2018-03-04T14:18:35.803Z,64.60
2018-03-04T14:21:03.934Z,65.10
2018-03-04T14:23:33.908Z,65.20
2018-03-04T14:26:02.156Z,65.20
2018-03-04T14:28:30.255Z,65.50
2018-03-04T14:30:58.400Z,65.60
2018-03-04T14:33:26.653Z,66.90
2018-03-04T14:35:54.789Z,66.10
2018-03-04T14:38:23.655Z,66.60
2018-03-04T14:40:51.811Z,66.60
2018-03-04T14:43:20.115Z,66.80
2018-03-04T14:45:49.248Z,67.30
2018-03-04T14:48:17.369Z,67.20
2018-03-04T14:50:45.518Z,67.10
2018-03-04T14:53:14.289Z,66.90
2018-03-04T14:55:42.416Z,67.00
2018-03-04T14:58:10.528Z,67.30
2018-03-04T15:00:38.677Z,67.60
2018-03-04T15:03:06.786Z,67.30
2018-03-04T15:05:35.028Z,67.30
2018-03-04T15:08:03.973Z,68.40
2018-03-04T15:10:32.121Z,68.00
2018-03-04T15:13:00.241Z,68.50
2018-03-04T15:15:28.401Z,68.70
2018-03-04T15:17:56.548Z,68.90
2018-03-04T15:20:24.749Z,69.80
2018-03-04T15:22:53.356Z,69.30
2018-03-04T15:25:21.517Z,69.40
2018-03-04T15:27:49.616Z,69.50
2018-03-04T15:30:17.747Z,69.50
2018-03-04T15:32:45.869Z,69.80
2018-03-04T15:35:14.834Z,69.30
2018-03-04T15:37:42.945Z,69.30
2018-03-04T15:40:11.857Z,70.10
2018-03-04T15:42:39.965Z,70.10
2018-03-04T15:45:08.098Z,70.20
2018-03-04T15:47:36.226Z,70.30
2018-03-04T15:50:05.153Z,70.80
2018-03-04T15:52:33.276Z,70.70
2018-03-04T15:55:01.416Z,71.20
2018-03-04T15:57:29.536Z,71.20
2018-03-04T15:59:57.658Z,71.50
2018-03-04T16:02:25.773Z,71.60
2018-03-04T16:04:53.903Z,71.90
2018-03-04T16:07:22.036Z,72.00
2018-03-04T16:09:50.972Z,72.00
2018-03-04T16:12:19.223Z,72.00
2018-03-04T16:14:48.122Z,72.10
2018-03-04T16:17:16.261Z,72.10
2018-03-04T16:19:44.379Z,72.50
2018-03-04T16:22:12.503Z,72.60
2018-03-04T16:24:40.628Z,72.80
2018-03-04T16:27:08.771Z,72.60
2018-03-04T16:29:36.887Z,72.80
2018-03-04T16:32:05.044Z,72.20
2018-03-04T16:34:33.152Z,73.10
2018-03-04T16:37:01.292Z,73.40
2018-03-04T16:39:29.415Z,73.40
2018-03-04T16:41:57.590Z,73.80
2018-03-04T16:44:25.704Z,74.00
2018-03-04T16:46:53.839Z,73.80
2018-03-04T16:49:21.959Z,73.70
2018-03-04T16:51:50.799Z,73.80
2018-03-04T16:54:18.915Z,73.70
2018-03-04T16:56:47.046Z,73.50
2018-03-04T16:59:15.156Z,73.20
2018-03-04T17:01:44.045Z,73.30
2018-03-04T17:04:12.918Z,73.90
2018-03-04T17:06:41.038Z,73.80
2018-03-04T17:09:09.139Z,73.60
2018-03-04T17:11:37.279Z,74.20
2018-03-04T17:14:06.929Z,74.00
2018-03-04T17:16:37.845Z,73.90
2018-03-04T17:19:05.967Z,74.50
2018-03-04T17:21:34.121Z,74.70
2018-03-04T17:24:02.240Z,74.50
2018-03-04T17:26:31.126Z,74.60
2018-03-04T17:29:01.104Z,74.60
2018-03-04T17:31:29.227Z,74.70
2018-03-04T17:33:57.336Z,74.70
2018-03-04T17:36:25.469Z,74.60
2018-03-04T17:38:54.154Z,75.10
2018-03-04T17:41:22.278Z,75.40
2018-03-04T17:43:50.392Z,75.10
2018-03-04T17:46:19.297Z,75.20
2018-03-04T17:48:47.428Z,75.20
2018-03-04T17:51:15.572Z,75.50
2018-03-04T17:53:44.890Z,75.80
2018-03-04T17:56:13.021Z,76.00
2018-03-04T17:58:41.136Z,76.20
2018-03-04T18:01:09.258Z,75.80
2018-03-04T18:03:37.502Z,76.10
2018-03-04T18:06:05.635Z,76.10
2018-03-04T18:08:33.771Z,76.10
2018-03-04T18:11:02.659Z,76.50
2018-03-04T18:13:30.793Z,77.10
2018-03-04T18:15:58.905Z,76.70
2018-03-04T18:18:27.817Z,77.80
2018-03-04T18:20:55.947Z,77.70
2018-03-04T18:23:24.085Z,78.70
2018-03-04T18:25:53.027Z,79.20
2018-03-04T18:28:22.746Z,78.40
2018-03-04T18:30:51.614Z,78.50
2018-03-04T18:33:19.752Z,78.50
2018-03-04T18:35:47.871Z,79.10
2018-03-04T18:38:16.599Z,78.70
2018-03-04T18:40:44.804Z,79.90
2018-03-04T18:43:12.922Z,79.30
2018-03-04T18:45:41.798Z,79.90
2018-03-04T18:48:09.978Z,79.90
2018-03-04T18:50:39.188Z,80.50
2018-03-04T18:53:08.187Z,81.70
2018-03-04T18:55:36.301Z,80.90
2018-03-04T18:58:04.620Z,80.90
2018-03-04T19:00:32.768Z,81.00
2018-03-04T19:03:00.903Z,80.40
2018-03-04T19:05:29.019Z,79.90
2018-03-04T19:07:57.148Z,79.70
2018-03-04T19:10:25.268Z,79.50
2018-03-04T19:12:53.380Z,79.10
2018-03-04T19:15:21.511Z,78.30
2018-03-04T19:17:49.618Z,78.40
2018-03-04T19:20:17.768Z,79.20
2018-03-04T19:22:45.881Z,79.50
2018-03-04T19:25:14.094Z,79.60
2018-03-04T19:27:42.211Z,80.10
2018-03-04T19:30:10.339Z,80.00
2018-03-04T19:32:39.046Z,78.90
2018-03-04T19:35:07.186Z,79.50
2018-03-04T19:37:35.303Z,79.80
2018-03-04T19:40:04.206Z,80.10
2018-03-04T19:42:33.092Z,79.30
2018-03-04T19:45:02.048Z,79.90
2018-03-04T19:47:30.937Z,80.30
2018-03-04T19:49:59.068Z,80.30
2018-03-04T19:52:27.196Z,79.90
2018-03-04T19:54:55.336Z,80.20
2018-03-04T19:57:23.562Z,80.20
2018-03-04T19:59:51.964Z,80.00
2018-03-04T20:02:20.139Z,80.20
2018-03-04T20:04:48.266Z,80.00
2018-03-04T20:07:16.366Z,80.50
2018-03-04T20:09:44.540Z,80.40
2018-03-04T20:12:13.425Z,81.40
2018-03-04T20:14:42.317Z,81.90
2018-03-04T20:17:11.195Z,83.10
2018-03-04T20:19:39.335Z,82.30
2018-03-04T20:22:07.438Z,81.50
2018-03-04T20:24:35.587Z,82.00
2018-03-04T20:27:03.807Z,82.80
2018-03-04T20:29:31.965Z,83.00
2018-03-04T20:32:00.132Z,82.40
2018-03-04T20:34:29.543Z,81.30
2018-03-04T20:36:58.598Z,81.90
2018-03-04T20:39:26.690Z,82.10
2018-03-04T20:41:55.595Z,81.70
2018-03-04T20:44:24.396Z,82.50
2018-03-04T20:46:52.631Z,82.00
2018-03-04T20:49:20.776Z,82.10
2018-03-04T20:51:48.954Z,83.00
2018-03-04T20:54:17.056Z,83.30
2018-03-04T20:56:45.192Z,83.00
2018-03-04T20:59:13.307Z,83.00
2018-03-04T21:01:41.447Z,82.70
2018-03-04T21:04:09.612Z,82.70
2018-03-04T21:06:37.799Z,82.60
2018-03-04T21:09:05.909Z,83.30
2018-03-04T21:11:34.219Z,82.80
2018-03-04T21:14:03.247Z,82.30
2018-03-04T21:16:31.607Z,82.30
2018-03-04T21:18:59.782Z,82.00
2018-03-04T21:21:27.922Z,83.00
2018-03-04T21:23:56.023Z,81.80
2018-03-04T21:26:24.921Z,81.20
2018-03-04T21:28:53.066Z,81.30
2018-03-04T21:31:21.223Z,81.10
2018-03-04T21:33:49.333Z,79.60
2018-03-04T21:36:18.431Z,77.90
2018-03-04T21:38:46.474Z,77.90
2018-03-04T21:41:14.642Z,77.80
2018-03-04T21:43:42.765Z,77.90
2018-03-04T21:46:10.896Z,77.40
2018-03-04T21:48:39.000Z,76.90
2018-03-04T21:51:07.137Z,77.30
2018-03-04T21:53:35.252Z,77.20
2018-03-04T21:56:03.382Z,77.20
2018-03-04T21:58:32.997Z,77.40
2018-03-04T22:01:01.148Z,77.40
2018-03-04T22:03:29.255Z,77.70
2018-03-04T22:05:58.136Z,77.30
2018-03-04T22:08:26.268Z,77.10
2018-03-04T22:10:54.373Z,77.20
2018-03-04T22:13:22.509Z,77.80
2018-03-04T22:15:51.508Z,77.10
2018-03-04T22:18:20.110Z,77.40
2018-03-04T22:20:49.019Z,77.90
2018-03-04T22:23:17.152Z,77.90
2018-03-04T22:25:45.265Z,78.50
2018-03-04T22:28:13.395Z,79.30
2018-03-04T22:30:41.532Z,78.80
2018-03-04T22:33:10.444Z,78.60
2018-03-04T22:35:38.547Z,78.40
2018-03-04T22:38:06.690Z,78.30
2018-03-04T22:40:34.808Z,78.30
2018-03-04T22:43:02.927Z,77.60
2018-03-04T22:45:31.058Z,77.30
2018-03-04T22:47:59.180Z,77.20
2018-03-04T22:50:27.291Z,77.10
2018-03-04T22:52:55.415Z,77.40
2018-03-04T22:55:23.869Z,77.30
2018-03-04T22:57:52.006Z,77.80
2018-03-04T23:00:20.126Z,77.80
2018-03-04T23:02:48.258Z,77.90
2018-03-04T23:05:16.354Z,78.00
2018-03-04T23:07:44.488Z,77.90
2018-03-04T23:10:12.615Z,78.30
2018-03-04T23:12:40.734Z,78.50
2018-03-04T23:15:08.844Z,78.70
2018-03-04T23:17:36.982Z,78.60
2018-03-04T23:20:05.094Z,78.40
2018-03-04T23:22:33.227Z,79.20
2018-03-04T23:25:01.370Z,79.40
2018-03-04T23:27:30.268Z,78.50
2018-03-04T23:29:59.646Z,78.00
2018-03-04T23:32:27.777Z,78.00
2018-03-04T23:34:55.872Z,78.20
2018-03-04T23:37:24.022Z,78.00
2018-03-04T23:39:52.461Z,78.00
2018-03-04T23:42:21.356Z,77.10
2018-03-04T23:44:50.238Z,76.90
2018-03-04T23:47:18.335Z,76.90
2018-03-04T23:49:46.485Z,77.10
2018-03-04T23:52:15.364Z,77.60
2018-03-04T23:54:43.498Z,77.60
2018-03-04T23:57:11.608Z,78.70
2018-03-04T23:59:39.742Z,78.60
